createdAt,value
2023-05-03T00:00:04.552Z,50.40
2023-05-03T00:01:04.299Z,50.00
2023-05-03T00:03:03.620Z,49.30
2023-05-03T00:04:04.188Z,50.00
2023-05-03T00:05:06.733Z,44.10
2023-05-03T00:06:04.101Z,44.00
2023-05-03T00:07:03.653Z,44.00
2023-05-03T00:08:06.818Z,44.20
2023-05-03T00:09:04.282Z,44.20
2023-05-03T00:10:09.207Z,44.30
2023-05-03T00:12:04.285Z,43.60
2023-05-03T00:13:06.471Z,43.50
2023-05-03T00:14:06.470Z,43.70
2023-05-03T00:16:04.127Z,43.80
2023-05-03T00:18:08.364Z,43.50
2023-05-03T00:20:05.000Z,43.60
2023-05-03T00:21:14.386Z,44.00
2023-05-03T00:22:06.314Z,44.10
2023-05-03T00:24:06.782Z,44.10
2023-05-03T00:26:06.322Z,44.10
2023-05-03T00:27:06.353Z,44.20
2023-05-03T00:29:05.991Z,44.30
2023-05-03T00:31:06.990Z,44.30
2023-05-03T00:33:04.317Z,44.30
2023-05-03T00:34:03.855Z,44.40
2023-05-03T00:35:07.036Z,44.10
2023-05-03T00:36:05.998Z,44.10
2023-05-03T00:37:07.083Z,44.20
2023-05-03T00:38:06.087Z,44.00
2023-05-03T00:40:04.735Z,43.90
2023-05-03T00:41:06.008Z,43.90
2023-05-03T00:43:06.701Z,44.20
2023-05-03T00:45:03.687Z,44.20
2023-05-03T00:46:17.554Z,44.10
2023-05-03T00:48:04.314Z,44.20
2023-05-03T00:49:03.759Z,44.30
2023-05-03T00:50:05.077Z,44.40
2023-05-03T00:51:06.403Z,44.40
2023-05-03T00:52:06.438Z,44.70
2023-05-03T00:54:04.474Z,44.70
2023-05-03T00:55:04.006Z,44.70
2023-05-03T00:56:06.153Z,44.60
2023-05-03T00:57:06.184Z,44.60
2023-05-03T00:59:04.272Z,44.30
2023-05-03T01:00:04.338Z,44.60
2023-05-03T01:01:04.160Z,44.40
2023-05-03T01:02:03.891Z,44.50
2023-05-03T01:03:07.304Z,44.90
2023-05-03T01:05:06.239Z,44.90
2023-05-03T01:06:06.265Z,45.20
2023-05-03T01:08:06.732Z,45.30
2023-05-03T01:09:06.617Z,44.80
2023-05-03T01:10:09.261Z,44.80
2023-05-03T01:11:06.303Z,45.10
2023-05-03T01:12:03.725Z,45.00
2023-05-03T01:13:04.213Z,45.10
2023-05-03T01:14:06.264Z,44.80
2023-05-03T01:15:06.220Z,45.20
2023-05-03T01:16:06.305Z,44.60
2023-05-03T01:17:06.355Z,44.70
2023-05-03T01:19:06.897Z,44.90
2023-05-03T01:20:05.388Z,44.80
2023-05-03T01:21:04.163Z,44.90
2023-05-03T01:22:03.712Z,45.00
2023-05-03T01:23:04.117Z,44.90
2023-05-03T01:24:10.548Z,45.10
2023-05-03T01:25:03.933Z,45.20
2023-05-03T01:27:06.604Z,45.60
2023-05-03T01:29:06.690Z,46.10
2023-05-03T01:30:04.836Z,46.20
2023-05-03T01:31:11.185Z,46.10
2023-05-03T01:33:04.567Z,46.20
2023-05-03T01:34:06.798Z,46.90
2023-05-03T01:36:03.766Z,47.30
2023-05-03T01:37:04.364Z,47.20
2023-05-03T01:39:03.780Z,47.10
2023-05-03T01:40:05.151Z,46.90
2023-05-03T01:41:06.613Z,46.60
2023-05-03T01:43:04.192Z,46.80
2023-05-03T01:44:08.816Z,47.00
2023-05-03T01:46:04.162Z,47.40
2023-05-03T01:48:07.126Z,47.30
2023-05-03T01:49:06.200Z,47.60
2023-05-03T01:51:03.558Z,47.70
2023-05-03T01:52:06.775Z,47.80
2023-05-03T01:54:03.627Z,47.60
2023-05-03T01:55:04.161Z,47.60
2023-05-03T01:57:03.647Z,47.70
2023-05-03T01:58:04.139Z,47.90
2023-05-03T02:00:05.109Z,48.30
2023-05-03T02:02:03.602Z,48.50
2023-05-03T02:03:04.344Z,48.40
2023-05-03T02:04:03.951Z,48.60
2023-05-03T02:05:06.147Z,48.70
2023-05-03T02:06:06.156Z,48.50
2023-05-03T02:08:11.831Z,49.10
2023-05-03T02:10:04.944Z,49.40
2023-05-03T02:11:04.118Z,49.00
2023-05-03T02:12:06.254Z,48.90
2023-05-03T02:14:04.221Z,49.00
2023-05-03T02:15:06.299Z,49.70
2023-05-03T02:16:06.287Z,49.60
2023-05-03T02:18:03.651Z,49.60
2023-05-03T02:19:04.315Z,49.90
2023-05-03T02:20:04.621Z,49.70
2023-05-03T02:22:04.388Z,49.70
2023-05-03T02:24:03.526Z,49.30
2023-05-03T02:25:04.186Z,49.50
2023-05-03T02:27:04.196Z,49.80
2023-05-03T02:29:04.315Z,50.10
2023-05-03T02:30:09.016Z,50.30
2023-05-03T02:32:04.038Z,50.20
2023-05-03T02:33:09.424Z,50.00
2023-05-03T02:35:06.034Z,50.60
2023-05-03T02:36:04.470Z,50.30
2023-05-03T02:38:04.173Z,51.00
2023-05-03T02:39:06.222Z,51.00
2023-05-03T02:40:04.154Z,51.00
2023-05-03T02:41:03.789Z,51.40
2023-05-03T02:42:04.355Z,51.50
2023-05-03T02:44:06.616Z,51.70
2023-05-03T02:46:03.626Z,51.90
2023-05-03T02:47:04.172Z,51.40
2023-05-03T02:48:03.917Z,51.40
2023-05-03T02:50:05.077Z,51.50
2023-05-03T02:52:06.915Z,51.80
2023-05-03T02:53:09.458Z,51.80
2023-05-03T02:54:03.943Z,51.80
2023-05-03T02:55:03.607Z,52.00
2023-05-03T02:56:04.205Z,52.00
2023-05-03T02:57:06.309Z,52.80
2023-05-03T02:58:06.229Z,52.70
2023-05-03T02:59:06.137Z,52.90
2023-05-03T03:00:06.652Z,52.70
2023-05-03T03:01:04.300Z,52.70
2023-05-03T03:02:04.277Z,53.00
2023-05-03T03:03:04.221Z,53.30
2023-05-03T03:04:06.711Z,53.30
2023-05-03T03:07:03.456Z,53.50
2023-05-03T03:08:06.531Z,53.50
2023-05-03T03:10:04.952Z,53.40
2023-05-03T03:11:06.255Z,53.60
2023-05-03T03:12:06.169Z,53.60
2023-05-03T03:14:04.180Z,53.60
2023-05-03T03:16:04.493Z,53.50
2023-05-03T03:17:06.718Z,53.40
2023-05-03T03:19:06.285Z,53.60
2023-05-03T03:20:04.230Z,53.60
2023-05-03T03:21:03.665Z,53.90
2023-05-03T03:22:06.746Z,53.30
2023-05-03T03:24:03.580Z,53.90
2023-05-03T03:25:06.671Z,54.20
2023-05-03T03:26:06.620Z,54.30
2023-05-03T03:28:03.569Z,54.20
2023-05-03T03:29:06.592Z,54.40
2023-05-03T03:30:04.496Z,54.40
2023-05-03T03:31:04.439Z,53.80
2023-05-03T03:32:09.284Z,53.90
2023-05-03T03:33:03.889Z,54.00
2023-05-03T03:34:03.590Z,54.10
2023-05-03T03:35:04.172Z,54.00
2023-05-03T03:36:06.315Z,54.20
2023-05-03T03:37:03.797Z,54.30
2023-05-03T03:38:06.967Z,54.40
2023-05-03T03:39:04.501Z,54.30
2023-05-03T03:40:04.760Z,54.30
2023-05-03T03:42:04.106Z,54.10
2023-05-03T03:43:06.166Z,54.30
2023-05-03T03:45:04.228Z,54.60
2023-05-03T03:46:08.852Z,54.20
2023-05-03T03:48:09.450Z,54.00
2023-05-03T03:50:08.704Z,54.40
2023-05-03T03:52:06.216Z,54.60
2023-05-03T03:53:06.153Z,54.20
2023-05-03T03:54:06.217Z,54.70
2023-05-03T03:56:03.719Z,54.90
2023-05-03T03:57:06.148Z,55.10
2023-05-03T03:58:06.127Z,55.20
2023-05-03T04:00:05.033Z,55.10
2023-05-03T04:01:06.407Z,55.40
2023-05-03T04:03:07.689Z,55.20
2023-05-03T04:04:06.252Z,55.30
2023-05-03T04:05:03.783Z,55.30
2023-05-03T04:06:09.563Z,55.90
2023-05-03T04:08:03.742Z,56.10
2023-05-03T04:09:06.963Z,56.00
2023-05-03T04:11:04.396Z,55.80
2023-05-03T04:12:09.069Z,55.90
2023-05-03T04:14:06.779Z,55.30
2023-05-03T04:16:05.164Z,55.40
2023-05-03T04:17:06.809Z,55.40
2023-05-03T04:18:04.433Z,55.30
2023-05-03T04:20:04.235Z,56.00
2023-05-03T04:21:04.115Z,56.00
2023-05-03T04:22:03.724Z,56.10
2023-05-03T04:23:04.456Z,55.90
2023-05-03T04:25:09.019Z,56.00
2023-05-03T04:27:04.134Z,56.10
2023-05-03T04:28:03.739Z,56.10
2023-05-03T04:29:04.352Z,56.10
2023-05-03T04:30:09.024Z,56.40
2023-05-03T04:31:06.379Z,56.80
2023-05-03T04:32:06.586Z,56.80
2023-05-03T04:34:03.772Z,56.90
2023-05-03T04:35:06.817Z,56.40
2023-05-03T04:36:06.747Z,56.60
2023-05-03T04:37:04.430Z,56.60
2023-05-03T04:38:06.595Z,56.70
2023-05-03T04:40:04.149Z,56.70
2023-05-03T04:41:06.518Z,56.90
2023-05-03T04:42:06.567Z,57.20
2023-05-03T04:43:04.011Z,57.20
2023-05-03T04:44:04.306Z,57.50
2023-05-03T04:45:03.800Z,57.20
2023-05-03T04:46:04.238Z,57.20
2023-05-03T04:47:06.434Z,56.90
2023-05-03T04:49:04.394Z,56.90
2023-05-03T04:50:04.681Z,56.50
2023-05-03T04:51:04.062Z,56.60
2023-05-03T04:52:06.517Z,56.50
2023-05-03T04:53:06.554Z,56.30
2023-05-03T04:54:04.122Z,56.50
2023-05-03T04:56:04.388Z,56.60
2023-05-03T04:58:03.906Z,56.60
2023-05-03T04:59:03.563Z,56.50
2023-05-03T05:00:04.982Z,56.50
2023-05-03T05:01:06.362Z,56.20
2023-05-03T05:02:06.508Z,56.30
2023-05-03T05:03:11.813Z,56.60
2023-05-03T05:04:04.498Z,56.50
2023-05-03T05:05:04.099Z,56.50
2023-05-03T05:06:06.377Z,56.40
2023-05-03T05:07:03.839Z,56.20
2023-05-03T05:08:04.400Z,55.90
2023-05-03T05:10:04.020Z,56.20
2023-05-03T05:11:03.936Z,55.70
2023-05-03T05:12:06.068Z,55.40
2023-05-03T05:13:06.061Z,55.40
2023-05-03T05:15:04.221Z,55.10
2023-05-03T05:16:06.368Z,54.80
2023-05-03T05:18:06.054Z,54.10
2023-05-03T05:20:04.696Z,53.80
2023-05-03T05:22:09.185Z,52.80
2023-05-03T05:24:04.341Z,53.00
2023-05-03T05:25:06.507Z,52.70
2023-05-03T05:27:04.409Z,52.50
2023-05-03T05:28:04.034Z,52.40
2023-05-03T05:29:03.743Z,52.30
2023-05-03T05:30:04.921Z,51.40
2023-05-03T05:31:06.412Z,49.90
2023-05-03T05:32:06.626Z,49.90
2023-05-03T05:34:03.959Z,50.50
2023-05-03T05:35:03.499Z,50.80
2023-05-03T05:36:06.652Z,49.50
2023-05-03T05:37:04.138Z,49.40
2023-05-03T05:38:06.222Z,47.80
2023-05-03T05:40:04.836Z,47.50
2023-05-03T05:41:05.211Z,47.50
2023-05-03T05:42:03.832Z,47.60
2023-05-03T05:43:04.434Z,47.80
2023-05-03T05:44:04.060Z,47.00
2023-05-03T05:45:03.660Z,45.50
2023-05-03T05:46:09.322Z,46.00
2023-05-03T05:48:04.497Z,46.10
2023-05-03T05:49:04.037Z,46.30
2023-05-03T05:50:17.359Z,46.30
2023-05-03T05:51:11.380Z,50.50
2023-05-03T05:52:11.435Z,49.20
2023-05-03T05:54:03.804Z,49.90
2023-05-03T05:55:07.205Z,50.50
2023-05-03T05:56:06.225Z,48.10
2023-05-03T05:58:06.686Z,48.90
2023-05-03T06:00:04.542Z,49.40
2023-05-03T06:01:04.384Z,47.50
2023-05-03T06:02:04.120Z,47.30
2023-05-03T06:03:03.868Z,46.80
2023-05-03T06:04:03.619Z,45.40
2023-05-03T06:05:07.723Z,44.90
2023-05-03T06:06:03.686Z,46.00
2023-05-03T06:07:04.394Z,46.00
2023-05-03T06:09:24.892Z,44.70
2023-05-03T06:10:04.388Z,44.60
2023-05-03T06:11:04.384Z,42.60
2023-05-03T06:12:03.952Z,43.00
2023-05-03T06:13:06.060Z,43.60
2023-05-03T06:14:08.596Z,41.80
2023-05-03T06:15:09.124Z,41.30
2023-05-03T06:16:06.140Z,41.00
2023-05-03T06:17:03.735Z,41.00
2023-05-03T06:18:04.490Z,40.90
2023-05-03T06:19:04.136Z,41.60
2023-05-03T06:21:03.680Z,41.40
2023-05-03T06:22:04.229Z,41.00
2023-05-03T06:23:06.488Z,41.50
2023-05-03T06:24:03.971Z,41.50
2023-05-03T06:25:03.622Z,41.80
2023-05-03T06:26:04.281Z,41.30
2023-05-03T06:27:06.340Z,41.20
2023-05-03T06:28:08.867Z,40.40
2023-05-03T06:30:04.905Z,40.90
2023-05-03T06:31:03.881Z,40.40
2023-05-03T06:32:03.494Z,40.10
2023-05-03T06:33:06.704Z,39.80
2023-05-03T06:34:04.176Z,39.50
2023-05-03T06:35:03.717Z,40.10
2023-05-03T06:36:06.924Z,38.20
2023-05-03T06:37:04.454Z,38.00
2023-05-03T06:38:04.013Z,37.00
2023-05-03T06:39:06.085Z,37.10
2023-05-03T06:40:04.089Z,36.90
2023-05-03T06:41:03.815Z,37.10
2023-05-03T06:42:07.047Z,37.10
2023-05-03T06:44:04.078Z,36.90
2023-05-03T06:45:06.155Z,37.20
2023-05-03T06:47:06.918Z,36.60
2023-05-03T06:48:06.190Z,37.20
2023-05-03T06:50:05.257Z,37.50
2023-05-03T06:52:06.186Z,37.10
2023-05-03T06:53:06.250Z,37.30
2023-05-03T06:55:04.430Z,37.00
2023-05-03T06:56:06.585Z,37.30
2023-05-03T06:57:06.649Z,36.70
2023-05-03T06:59:03.686Z,37.00
2023-05-03T07:00:04.888Z,36.20
2023-05-03T07:01:06.109Z,35.80
2023-05-03T07:02:06.343Z,36.00
2023-05-03T07:03:06.691Z,36.20
2023-05-03T07:05:03.930Z,35.90
2023-05-03T07:07:04.364Z,34.70
2023-05-03T07:08:06.613Z,35.00
2023-05-03T07:09:04.169Z,35.00
2023-05-03T07:10:04.518Z,34.60
2023-05-03T07:11:06.965Z,34.60
2023-05-03T07:13:06.544Z,33.90
2023-05-03T07:14:04.114Z,33.80
2023-05-03T07:15:03.794Z,33.90
2023-05-03T07:16:09.624Z,34.70
2023-05-03T07:18:03.812Z,34.30
2023-05-03T07:19:04.497Z,34.70
2023-05-03T07:20:04.376Z,33.60
2023-05-03T07:21:04.459Z,34.20
2023-05-03T07:22:04.041Z,34.00
2023-05-03T07:23:08.684Z,33.60
2023-05-03T07:24:04.091Z,33.60
2023-05-03T07:25:03.938Z,33.80
2023-05-03T07:27:09.221Z,33.70
2023-05-03T07:28:06.317Z,33.80
2023-05-03T07:30:04.890Z,34.20
2023-05-03T07:31:06.384Z,34.70
2023-05-03T07:32:03.935Z,34.80
2023-05-03T07:33:03.713Z,34.30
2023-05-03T07:34:06.998Z,34.10
2023-05-03T07:35:09.679Z,34.30
2023-05-03T07:37:04.326Z,35.00
2023-05-03T07:38:03.960Z,35.60
2023-05-03T07:39:03.550Z,35.60
2023-05-03T07:40:04.704Z,35.90
2023-05-03T07:41:06.924Z,35.30
2023-05-03T07:43:03.875Z,35.90
2023-05-03T07:44:04.477Z,36.20
2023-05-03T07:45:04.030Z,36.00
2023-05-03T07:47:04.280Z,36.50
2023-05-03T07:48:09.004Z,34.70
2023-05-03T07:50:04.875Z,33.40
2023-05-03T07:51:08.777Z,35.00
2023-05-03T07:53:06.837Z,35.80
2023-05-03T07:55:06.386Z,35.30
2023-05-03T07:57:03.745Z,35.40
2023-05-03T07:58:04.443Z,35.20
2023-05-03T07:59:10.271Z,35.10
2023-05-03T08:01:04.189Z,35.00
2023-05-03T08:02:06.388Z,33.90
2023-05-03T08:03:07.137Z,34.10
2023-05-03T08:04:04.536Z,34.10
2023-05-03T08:05:04.833Z,34.40
2023-05-03T08:06:06.226Z,33.80
2023-05-03T08:08:06.948Z,32.80
2023-05-03T08:10:04.605Z,32.70
2023-05-03T08:11:06.990Z,32.70
2023-05-03T08:13:11.564Z,32.50
2023-05-03T08:16:06.917Z,33.40
2023-05-03T08:19:06.221Z,33.40
2023-05-03T08:20:04.131Z,33.30
2023-05-03T08:21:03.902Z,32.60
2023-05-03T08:22:04.560Z,32.60
2023-05-03T08:23:04.258Z,32.30
2023-05-03T08:24:03.922Z,32.80
2023-05-03T08:25:06.032Z,33.00
2023-05-03T08:26:07.061Z,32.80
2023-05-03T08:28:04.060Z,32.70
2023-05-03T08:29:06.183Z,33.10
2023-05-03T08:30:04.242Z,32.90
2023-05-03T08:31:04.204Z,33.40
2023-05-03T08:32:03.835Z,33.30
2023-05-03T08:33:04.610Z,33.50
2023-05-03T08:34:04.291Z,33.30
2023-05-03T08:36:06.886Z,32.70
2023-05-03T08:37:06.923Z,33.30
2023-05-03T08:39:03.828Z,33.10
2023-05-03T08:40:04.989Z,33.50
2023-05-03T08:41:08.767Z,33.10
2023-05-03T08:42:04.356Z,33.10
2023-05-03T08:43:06.587Z,32.90
2023-05-03T08:44:04.188Z,32.90
2023-05-03T08:45:03.888Z,32.70
2023-05-03T08:46:03.529Z,32.70
2023-05-03T08:47:04.243Z,32.50
2023-05-03T08:48:03.913Z,32.60
2023-05-03T08:49:03.690Z,32.60
2023-05-03T08:50:04.716Z,33.00
2023-05-03T08:52:04.183Z,33.50
2023-05-03T08:53:03.735Z,34.00
2023-05-03T08:54:04.304Z,33.80
2023-05-03T08:55:06.473Z,34.00
2023-05-03T08:56:04.010Z,33.90
2023-05-03T08:58:04.153Z,33.50
2023-05-03T08:59:06.211Z,33.40
2023-05-03T09:01:06.248Z,32.50
2023-05-03T09:02:03.825Z,32.50
2023-05-03T09:03:03.685Z,32.40
2023-05-03T09:04:04.500Z,33.00
2023-05-03T09:05:04.530Z,33.80
2023-05-03T09:06:04.302Z,34.10
2023-05-03T09:07:03.894Z,33.80
2023-05-03T09:09:04.146Z,32.60
2023-05-03T09:10:04.170Z,32.90
2023-05-03T09:11:03.882Z,33.70
2023-05-03T09:12:06.911Z,32.80
2023-05-03T09:13:09.671Z,32.90
2023-05-03T09:15:06.559Z,33.40
2023-05-03T09:17:06.328Z,33.70
2023-05-03T09:18:06.573Z,32.70
2023-05-03T09:19:06.635Z,36.40
2023-05-03T09:20:04.609Z,35.40
2023-05-03T09:21:04.437Z,31.70
2023-05-03T09:22:06.584Z,35.50
2023-05-03T09:23:04.115Z,35.50
2023-05-03T09:24:03.810Z,36.00
2023-05-03T09:25:04.456Z,29.90
2023-05-03T09:26:04.030Z,30.50
2023-05-03T09:27:08.673Z,33.10
2023-05-03T09:29:06.712Z,36.70
2023-05-03T09:30:06.741Z,35.60
2023-05-03T09:31:04.194Z,36.40
2023-05-03T09:32:06.624Z,36.00
2023-05-03T09:34:08.950Z,35.50
2023-05-03T09:36:04.404Z,36.80
2023-05-03T09:37:06.552Z,36.40
2023-05-03T09:40:04.606Z,35.60
2023-05-03T09:41:04.316Z,35.80
2023-05-03T09:42:03.908Z,36.20
2023-05-03T09:43:05.252Z,36.40
2023-05-03T09:44:06.495Z,36.30
2023-05-03T09:46:06.479Z,37.10
2023-05-03T09:48:06.182Z,35.60
2023-05-03T09:50:04.479Z,34.90
2023-05-03T09:51:04.066Z,35.50
2023-05-03T09:52:03.761Z,35.20
2023-05-03T09:53:04.387Z,34.70
2023-05-03T09:55:03.941Z,33.70
2023-05-03T09:56:08.744Z,34.20
2023-05-03T09:57:04.154Z,34.10
2023-05-03T09:58:04.244Z,34.30
2023-05-03T09:59:09.132Z,34.40
2023-05-03T10:00:06.144Z,34.70
2023-05-03T10:01:03.789Z,34.70
2023-05-03T10:02:04.433Z,35.00
2023-05-03T10:03:06.739Z,34.70
2023-05-03T10:05:11.518Z,37.20
2023-05-03T10:07:03.914Z,37.80
2023-05-03T10:08:03.614Z,37.30
2023-05-03T10:09:04.197Z,36.30
2023-05-03T10:10:03.751Z,36.20
2023-05-03T10:11:04.304Z,37.10
2023-05-03T10:13:06.213Z,36.00
2023-05-03T10:14:03.713Z,35.00
2023-05-03T10:15:04.724Z,34.80
2023-05-03T10:16:06.164Z,35.90
2023-05-03T10:17:03.748Z,35.70
2023-05-03T10:18:04.358Z,37.30
2023-05-03T10:19:03.978Z,34.20
2023-05-03T10:21:04.246Z,33.30
2023-05-03T10:22:06.499Z,32.30
2023-05-03T10:23:04.066Z,32.30
2023-05-03T10:25:04.739Z,33.90
2023-05-03T10:26:06.219Z,35.20
2023-05-03T10:27:03.743Z,35.00
2023-05-03T10:28:04.363Z,36.00
2023-05-03T10:30:04.016Z,35.40
2023-05-03T10:31:03.815Z,35.20
2023-05-03T10:32:04.426Z,35.70
2023-05-03T10:33:03.964Z,35.40
2023-05-03T10:35:07.428Z,34.20
2023-05-03T10:37:03.479Z,34.80
2023-05-03T10:38:04.090Z,35.30
2023-05-03T10:39:06.122Z,34.50
2023-05-03T10:41:04.322Z,35.10
2023-05-03T10:42:03.838Z,34.10
2023-05-03T10:43:04.439Z,33.80
2023-05-03T10:44:03.988Z,34.00
2023-05-03T10:45:04.336Z,34.00
2023-05-03T10:46:06.996Z,34.50
2023-05-03T10:48:12.075Z,31.80
2023-05-03T10:49:06.086Z,32.60
2023-05-03T10:50:06.242Z,32.60
2023-05-03T10:51:03.673Z,32.40
2023-05-03T10:52:06.823Z,31.80
2023-05-03T10:53:09.279Z,32.30
2023-05-03T10:54:03.751Z,32.50
2023-05-03T10:55:04.883Z,32.60
2023-05-03T10:56:03.607Z,32.40
2023-05-03T10:57:06.811Z,32.00
2023-05-03T10:58:04.249Z,32.10
2023-05-03T10:59:03.798Z,32.80
2023-05-03T11:00:04.460Z,32.80
2023-05-03T11:01:06.790Z,33.20
2023-05-03T11:02:07.177Z,32.80
2023-05-03T11:03:06.640Z,32.70
2023-05-03T11:04:06.665Z,32.00
2023-05-03T11:05:05.015Z,32.00
2023-05-03T11:06:06.478Z,31.70
2023-05-03T11:07:04.123Z,31.70
2023-05-03T11:08:03.833Z,31.60
2023-05-03T11:09:03.577Z,32.00
2023-05-03T11:10:04.351Z,32.40
2023-05-03T11:11:03.856Z,31.80
2023-05-03T11:12:03.538Z,32.20
2023-05-03T11:13:06.721Z,32.10
2023-05-03T11:14:04.454Z,32.10
2023-05-03T11:15:04.672Z,32.80
2023-05-03T11:16:04.726Z,33.00
2023-05-03T11:18:04.066Z,33.20
2023-05-03T11:19:03.651Z,33.10
2023-05-03T11:20:04.300Z,33.40
2023-05-03T11:21:03.842Z,33.10
2023-05-03T11:22:04.420Z,33.30
2023-05-03T11:23:06.514Z,32.50
2023-05-03T11:24:06.458Z,32.30
2023-05-03T11:25:04.551Z,32.20
2023-05-03T11:26:06.767Z,31.70
2023-05-03T11:27:08.887Z,31.70
2023-05-03T11:28:06.113Z,31.70
2023-05-03T11:30:04.108Z,30.90
2023-05-03T11:32:04.338Z,30.70
2023-05-03T11:33:03.953Z,31.10
2023-05-03T11:34:06.109Z,31.50
2023-05-03T11:36:04.479Z,31.80
2023-05-03T11:37:09.148Z,31.70
2023-05-03T11:38:11.195Z,33.40
2023-05-03T11:40:04.453Z,33.30
2023-05-03T11:41:04.014Z,32.60
2023-05-03T11:43:04.236Z,30.50
2023-05-03T11:44:17.462Z,30.40
2023-05-03T11:46:04.123Z,30.30
2023-05-03T11:47:04.419Z,29.40
2023-05-03T11:48:04.371Z,29.70
2023-05-03T11:49:06.635Z,29.60
2023-05-03T11:50:04.202Z,29.70
2023-05-03T11:51:03.730Z,29.60
2023-05-03T11:52:04.340Z,29.30
2023-05-03T11:54:25.857Z,28.00
2023-05-03T11:55:04.333Z,25.80
2023-05-03T11:56:06.613Z,25.40
2023-05-03T11:57:06.664Z,25.90
2023-05-03T11:59:03.627Z,25.60
2023-05-03T12:00:06.888Z,26.10
2023-05-03T12:02:07.204Z,31.60
2023-05-03T12:03:04.112Z,31.20
2023-05-03T12:04:04.206Z,29.30
2023-05-03T12:05:05.299Z,28.60
2023-05-03T12:06:05.477Z,28.30
2023-05-03T12:07:04.967Z,28.10
2023-05-03T12:08:06.195Z,27.80
2023-05-03T12:09:07.623Z,28.00
2023-05-03T12:10:23.431Z,27.30
2023-05-03T12:12:07.178Z,28.30
2023-05-03T12:13:05.991Z,28.60
2023-05-03T12:14:04.253Z,29.80
2023-05-03T12:15:07.568Z,28.70
2023-05-03T12:16:14.513Z,28.70
2023-05-03T12:17:03.928Z,28.70
2023-05-03T12:18:05.428Z,28.20
2023-05-03T12:20:33.509Z,28.00
2023-05-03T12:21:31.762Z,28.70
2023-05-03T12:22:23.347Z,28.70
2023-05-03T12:23:05.108Z,28.50
2023-05-03T12:24:06.402Z,29.00
2023-05-03T12:25:05.141Z,28.70
2023-05-03T12:26:05.922Z,27.40
2023-05-03T12:27:04.045Z,27.80
2023-05-03T12:28:19.321Z,28.20
2023-05-03T12:29:04.929Z,27.20
2023-05-03T12:30:04.629Z,27.00
2023-05-03T12:31:05.867Z,27.40
2023-05-03T12:32:06.288Z,27.20
2023-05-03T12:34:35.351Z,26.40
2023-05-03T12:35:09.564Z,27.80
2023-05-03T12:37:12.509Z,27.40
2023-05-03T12:39:03.855Z,27.70
2023-05-03T12:40:34.525Z,27.80
2023-05-03T12:42:09.468Z,27.80
2023-05-03T12:44:10.734Z,28.60
2023-05-03T12:45:05.507Z,28.50
2023-05-03T12:46:31.965Z,28.00
2023-05-03T12:47:04.456Z,27.00
2023-05-03T12:48:10.026Z,28.40
2023-05-03T12:49:06.479Z,28.40
2023-05-03T12:50:06.161Z,27.30
2023-05-03T12:51:20.444Z,28.20
2023-05-03T12:53:08.419Z,27.40
2023-05-03T12:54:03.907Z,29.10
2023-05-03T12:55:04.832Z,27.70
2023-05-03T12:56:06.690Z,28.20
2023-05-03T12:57:09.271Z,26.90
2023-05-03T12:59:42.272Z,27.70
2023-05-03T13:04:36.768Z,28.10
2023-05-03T13:05:22.564Z,28.00
2023-05-03T13:06:14.730Z,27.00
2023-05-03T13:08:10.467Z,26.00
2023-05-03T13:11:06.473Z,24.90
2023-05-03T13:13:03.752Z,25.00
2023-05-03T13:14:04.270Z,25.40
2023-05-03T13:15:04.157Z,25.20
2023-05-03T13:16:06.571Z,25.50
2023-05-03T13:17:06.798Z,25.80
2023-05-03T13:18:06.892Z,25.10
2023-05-03T13:20:06.636Z,26.60
2023-05-03T13:22:03.794Z,26.90
2023-05-03T13:23:04.511Z,26.60
2023-05-03T13:24:04.103Z,26.80
2023-05-03T13:25:04.770Z,27.50
2023-05-03T13:27:04.261Z,27.50
2023-05-03T13:28:03.877Z,27.00
2023-05-03T13:29:09.504Z,27.80
2023-05-03T13:31:04.454Z,28.00
2023-05-03T13:32:04.184Z,28.10
2023-05-03T13:34:03.727Z,28.40
2023-05-03T13:35:07.282Z,28.40
2023-05-03T13:37:04.804Z,28.40
2023-05-03T13:38:04.388Z,29.00
2023-05-03T13:39:06.448Z,28.80
2023-05-03T13:40:04.656Z,28.60
2023-05-03T13:41:04.408Z,28.80
2023-05-03T13:42:06.742Z,29.30
2023-05-03T13:43:06.798Z,29.20
2023-05-03T13:45:06.480Z,28.80
2023-05-03T13:46:06.596Z,28.30
2023-05-03T13:48:19.399Z,28.60
2023-05-03T13:49:04.264Z,28.60
2023-05-03T13:50:04.358Z,28.90
2023-05-03T13:51:06.742Z,28.90
2023-05-03T13:52:04.258Z,28.80
2023-05-03T13:53:03.801Z,28.80
2023-05-03T13:54:04.416Z,29.30
2023-05-03T13:55:06.587Z,28.70
2023-05-03T13:58:04.316Z,26.60
2023-05-03T13:59:06.466Z,29.30
2023-05-03T14:00:07.396Z,29.00
2023-05-03T14:01:03.924Z,28.90
2023-05-03T14:03:04.632Z,27.70
2023-05-03T14:04:04.646Z,27.60
2023-05-03T14:05:07.050Z,29.20
2023-05-03T14:06:03.601Z,29.40
2023-05-03T14:07:04.297Z,28.90
2023-05-03T14:08:06.378Z,28.80
2023-05-03T14:10:04.151Z,28.70
2023-05-03T14:11:06.622Z,28.40
2023-05-03T14:12:06.902Z,28.50
2023-05-03T14:13:07.031Z,29.30
2023-05-03T14:15:09.243Z,28.00
2023-05-03T14:16:03.930Z,28.80
2023-05-03T14:17:03.809Z,28.40
2023-05-03T14:18:06.621Z,28.90
2023-05-03T14:20:04.783Z,23.00
2023-05-03T14:21:06.004Z,26.70
2023-05-03T14:23:06.682Z,27.30
2023-05-03T14:25:06.360Z,24.60
2023-05-03T14:26:06.326Z,25.20
2023-05-03T14:28:04.303Z,25.40
2023-05-03T14:29:06.483Z,25.10
2023-05-03T14:31:03.977Z,25.50
2023-05-03T14:32:03.516Z,25.10
2023-05-03T14:33:06.746Z,26.00
2023-05-03T14:34:04.230Z,25.60
2023-05-03T14:36:04.385Z,25.60
2023-05-03T14:37:06.442Z,25.90
2023-05-03T14:38:06.422Z,25.30
2023-05-03T14:39:03.915Z,25.50
2023-05-03T14:40:04.129Z,25.20
2023-05-03T14:41:03.962Z,25.60
2023-05-03T14:42:03.528Z,25.90
2023-05-03T14:43:04.217Z,26.10
2023-05-03T14:44:03.996Z,25.20
2023-05-03T14:45:04.088Z,25.50
2023-05-03T14:46:03.965Z,25.10
2023-05-03T14:47:03.774Z,25.20
2023-05-03T14:48:13.675Z,25.70
2023-05-03T14:50:07.311Z,25.30
2023-05-03T14:51:03.925Z,25.20
2023-05-03T14:52:06.135Z,25.30
2023-05-03T14:53:06.166Z,25.70
2023-05-03T14:54:06.141Z,25.60
2023-05-03T14:55:06.489Z,25.90
2023-05-03T14:56:03.979Z,25.70
2023-05-03T14:58:07.240Z,24.80
2023-05-03T14:59:03.633Z,24.70
2023-05-03T15:00:04.839Z,25.20
2023-05-03T15:02:04.226Z,25.60
2023-05-03T15:03:04.010Z,26.20
2023-05-03T15:05:09.466Z,25.20
2023-05-03T15:07:03.725Z,25.50
2023-05-03T15:08:04.328Z,25.80
2023-05-03T15:09:04.025Z,25.70
2023-05-03T15:10:09.116Z,25.60
2023-05-03T15:11:03.668Z,25.60
2023-05-03T15:12:04.355Z,25.20
2023-05-03T15:13:06.924Z,25.50
2023-05-03T15:14:04.498Z,25.40
2023-05-03T15:16:06.200Z,25.40
2023-05-03T15:17:06.413Z,24.50
2023-05-03T15:19:03.504Z,24.50
2023-05-03T15:20:04.479Z,24.40
2023-05-03T15:21:11.849Z,24.60
2023-05-03T15:23:06.509Z,25.20
2023-05-03T15:24:03.938Z,25.20
2023-05-03T15:26:06.683Z,25.70
2023-05-03T15:27:04.159Z,25.70
2023-05-03T15:28:05.057Z,25.70
2023-05-03T15:30:04.705Z,25.70
2023-05-03T15:31:06.180Z,27.80
2023-05-03T15:33:04.535Z,25.60
2023-05-03T15:34:04.216Z,25.40
2023-05-03T15:35:06.413Z,25.70
2023-05-03T15:36:06.377Z,26.00
2023-05-03T15:37:06.368Z,26.00
2023-05-03T15:39:04.495Z,25.60
2023-05-03T15:40:04.741Z,25.50
2023-05-03T15:42:04.075Z,25.60
2023-05-03T15:43:03.654Z,25.60
2023-05-03T15:44:04.203Z,28.20
2023-05-03T15:45:06.416Z,28.40
2023-05-03T15:46:04.047Z,28.40
2023-05-03T15:47:03.950Z,28.30
2023-05-03T15:49:04.319Z,27.60
2023-05-03T15:50:04.738Z,27.90
2023-05-03T15:51:06.053Z,27.90
2023-05-03T15:53:04.309Z,28.90
2023-05-03T15:54:06.459Z,28.70
2023-05-03T15:56:08.566Z,28.40
2023-05-03T15:58:07.012Z,28.70
2023-05-03T16:00:07.321Z,29.40
2023-05-03T16:02:03.709Z,28.50
2023-05-03T16:03:04.610Z,28.40
2023-05-03T16:04:04.240Z,28.20
2023-05-03T16:06:07.117Z,27.50
2023-05-03T16:08:16.771Z,27.80
2023-05-03T16:10:04.398Z,28.70
2023-05-03T16:11:09.139Z,28.90
2023-05-03T16:12:06.205Z,28.70
2023-05-03T16:14:09.413Z,29.50
2023-05-03T16:15:08.289Z,29.30
2023-05-03T16:17:03.619Z,30.10
2023-05-03T16:18:04.333Z,30.00
2023-05-03T16:19:03.872Z,29.40
2023-05-03T16:20:05.164Z,30.00
2023-05-03T16:21:03.861Z,29.10
2023-05-03T16:22:06.058Z,26.80
2023-05-03T16:23:03.584Z,26.70
2023-05-03T16:24:04.186Z,26.90
2023-05-03T16:25:06.348Z,29.50
2023-05-03T16:26:08.805Z,26.70
2023-05-03T16:27:04.211Z,26.90
2023-05-03T16:29:04.422Z,26.90